Werte bis 5 Uhr SommerzeitDiagramme Allmendfeld: Tagesdaten MonatsdatenCSV-Datei: Allmendfeld21.csv

Wetterdaten 2021 Station: Allmendfeld
Temperaturen in °C relative Nieder- Global- Wind Wind Wind- Sonnen-
Datum Boden Boden Luft Luft Luft Luft Feuchte schlag strahlung max richtung schein
20 cm 5 cm 20 cm 2 m 2 m max 2 m min % mm W/m2*d m/s m/s ° h

06.05.2021 10,3 8,8 4,1 4,2 5,2 3,5 96 0,0 0 1,0 2,6 --- ---
05.05.2021 10,2 9,8 8,7 8,4 12,3 3,5 73 1,3 4585 3,7 15,4 --- 8,7
04.05.2021 10,6 9,7 11,0 10,6 13,5 7,3 66 0,5 1122 5,5 15,8 --- 1,8
03.05.2021 11,0 10,6 8,7 8,4 15,6 -0,6 63 0,0 5688 1,8 10,5 --- 10,1
02.05.2021 11,4 12,1 9,9 10,1 14,5 2,0 56 0,0 6722 1,6 7,7 --- 9,6
01.05.2021 10,7 10,9 9,5 10,0 16,2 2,6 70 0,0 4284 1,0 4,8 --- 9,2
30.04.2021 11,1 10,1 6,3 6,6 10,5 -0,2 76 0,0 2466 0,8 3,5 --- 8,0
29.04.2021 12,2 12,9 12,5 12,1 17,3 5,7 74 3,6 5328 2,9 13,8 --- 9,6
28.04.2021 11,6 12,5 12,6 13,0 22,9 3,8 56 3,4 6304 1,1 9,4 --- 8,4
27.04.2021 11,2 11,9 10,7 11,2 19,0 2,5 41 0,0 7490 1,5 7,3 --- 9,9
26.04.2021 11,1 11,5 9,2 9,5 17,3 0,9 47 0,0 7779 1,5 6,8 --- 10,2
25.04.2021 11,1 11,7 9,6 9,9 16,1 2,9 54 0,0 7645 1,5 7,7 --- 10,2
24.04.2021 10,8 11,5 10,3 10,9 18,7 2,4 56 0,0 7340 1,5 6,2 --- 10,0
23.04.2021 10,6 11,2 8,7 9,4 17,9 -0,5 58 0,0 7455 0,9 6,4 --- 10,0
22.04.2021 10,6 11,3 9,5 9,9 16,1 4,6 58 9,4 7129 1,6 7,3 --- 9,7
21.04.2021 10,2 11,2 10,2 10,8 20,3 1,2 72 0,6 6084 0,8 11,2 --- 9,0
20.04.2021 9,6 10,5 8,3 9,1 19,3 -0,2 77 0,0 5934 0,6 5,3 --- 9,1
19.04.2021 9,3 10,2 9,3 9,4 16,3 3,2 87 2,1 3215 0,8 4,8 --- 8,4
18.04.2021 8,6 9,0 8,3 8,5 13,8 3,5 77 0,1 2696 0,7 4,7 --- 7,9
17.04.2021 7,9 8,3 7,0 7,1 13,3 0,2 67 0,0 4911 1,1 7,7 --- 7,9
16.04.2021 7,6 7,1 5,1 5,1 9,2 -1,2 71 0,0 3218 1,1 6,4 --- 8,1
15.04.2021 7,5 6,9 4,5 4,6 10,9 -2,4 69 0,0 5037 1,5 7,9 --- 9,6
14.04.2021 7,7 7,1 3,6 3,8 11,6 -2,6 71 0,0 4755 1,0 6,6 --- 9,4
13.04.2021 7,7 7,2 3,3 3,7 11,0 -4,1 74 0,1 5672 0,8 6,3 --- 9,5
12.04.2021 8,3 8,1 4,9 4,9 10,2 -1,1 79 0,1 3647 1,3 7,0 --- 7,8
11.04.2021 8,4 8,7 8,8 8,8 16,0 4,0 87 7,1 1875 1,8 7,3 --- 3,6
10.04.2021 8,0 8,5 11,0 11,1 13,9 9,4 75 2,3 1329 2,0 7,3 --- 4,0
09.04.2021 6,8 6,7 8,5 8,4 17,1 -3,3 57 0,0 5366 2,1 9,5 --- 8,7
08.04.2021 6,3 5,8 4,2 4,2 10,7 -1,4 61 0,0 4155 1,5 6,6 --- 8,7
07.04.2021 6,7 5,2 3,5 3,1 5,2 1,2 69 0,1 1283 4,0 12,3 --- 3,8
06.04.2021 7,0 5,6 2,8 2,6 7,7 -2,9 68 0,1 3766 2,9 13,2 --- 7,9
05.04.2021 8,5 6,8 3,5 3,3 8,0 -1,5 80 1,3 1216 2,8 11,9 --- 3,2
04.04.2021 9,1 8,8 5,6 6,1 13,8 -1,8 68 0,0 5373 0,8 5,5 --- 8,9
03.04.2021 9,6 9,6 7,9 8,0 13,8 2,7 57 0,0 5502 1,4 7,2 --- 8,6
02.04.2021 10,2 10,3 8,5 8,8 14,7 1,3 66 0,0 4087 1,8 7,8 --- 8,2
01.04.2021 10,1 11,3 14,1 14,8 25,3 4,4 62 0,0 5052 1,1 6,1 --- 8,3
31.03.2021 9,4 10,4 12,3 13,6 27,2 1,5 64 0,0 5648 0,5 3,6 --- 8,8
30.03.2021 8,6 9,5 11,0 12,3 24,6 0,6 63 0,0 5780 0,5 4,7 --- 8,9
29.03.2021 8,1 8,8 12,6 12,8 22,2 4,4 54 0,0 5638 1,7 7,7 --- 8,3
28.03.2021 7,6 7,9 10,1 9,9 16,1 2,8 66 0,0 4634 2,3 9,4 --- 7,6
27.03.2021 7,9 7,8 9,2 8,2 11,6 3,7 71 0,3 3522 4,3 14,4 --- 6,7
26.03.2021 7,4 8,3 11,4 11,5 18,0 5,7 67 0,0 4630 1,9 7,3 --- 7,2
25.03.2021 6,6 6,8 8,4 8,8 17,3 -0,3 70 0,0 4346 2,0 8,4 --- 8,3
24.03.2021 6,2 6,1 6,1 6,3 16,3 -2,7 74 0,0 5285 1,1 5,7 --- 8,6
23.03.2021 6,2 6,5 6,1 6,2 11,2 0,2 77 0,0 2566 0,6 4,7 --- 6,4
22.03.2021 5,7 5,5 5,9 5,9 8,5 4,1 75 0,0 1371 1,4 5,9 --- 4,7
21.03.2021 5,5 5,2 5,4 5,4 10,1 2,4 69 0,0 1936 2,1 9,3 --- 5,5
20.03.2021 5,2 4,4 2,0 2,4 7,9 -4,2 65 0,0 4968 0,9 5,5 --- 7,3
19.03.2021 5,8 5,4 3,3 3,8 11,1 -1,9 82 1,1 3207 1,6 8,9 --- 6,4
18.03.2021 5,4 4,9 2,7 3,9 20,0 -2,9 79 0,4 3755 0,7 5,8 --- 7,0
17.03.2021 5,9 5,4 3,7 4,2 12,8 0,8 88 2,6 1840 0,9 5,9 --- 3,9
16.03.2021 5,9 5,5 5,4 5,7 9,5 3,9 84 0,1 1564 1,6 8,0 --- 4,5
15.03.2021 5,8 5,5 5,7 5,7 10,1 3,3 85 7,4 2370 2,5 9,5 --- 5,6
14.03.2021 5,9 5,4 5,0 5,0 8,2 2,4 87 1,9 2020 2,9 9,8 --- 6,3
13.03.2021 6,0 5,8 7,7 7,2 9,7 6,3 84 4,2 1362 5,5 18,2 --- 3,0
12.03.2021 6,0 5,9 8,1 7,5 10,6 8,3 73 4,9 2422 5,4 17,6 --- 6,3
11.03.2021 5,7 6,1 9,8 9,4 15,1 8,1 77 1,4 1413 5,0 17,7 --- 2,5
10.03.2021 4,9 5,1 6,6 6,5 10,9 1,9 79 0,0 1915 1,8 6,3 --- 6,1
09.03.2021 4,3 3,8 3,2 3,5 7,9 -2,5 82 0,0 2236 1,1 5,5 --- 5,3
08.03.2021 3,9 2,9 1,9 1,5 7,2 -5,6 74 0,0 3792 1,0 5,0 --- 7,4
07.03.2021 4,1 2,6 1,0 2,0 10,0 -7,1 60 0,0 4413 0,8 5,1 --- 7,7
06.03.2021 5,0 3,3 0,9 1,0 8,5 -4,8 64 0,0 4357 1,3 6,7 --- 7,7
05.03.2021 6,2 5,9 4,1 3,7 7,3 -1,4 79 0,6 1973 1,6 7,0 --- 5,9
04.03.2021 5,8 6,3 9,0 8,0 14,8 5,1 77 1,4 2391 1,6 7,0 --- 5,4
03.03.2021 5,1 4,7 5,5 5,2 14,1 -2,1 81 0,0 2613 0,9 5,5 --- 6,0
02.03.2021 5,0 4,8 6,3 6,9 15,1 -1,2 74 0,0 3853 0,8 3,9 --- 7,3
01.03.2021 4,6 3,9 6,0 5,3 13,9 -0,1 72 0,0 3847 1,6 7,6 --- 7,2
28.02.2021 4,9 3,9 4,3 4,8 11,6 -0,6 75 0,0 3807 1,2 7,1 --- 7,3
27.02.2021 5,2 4,3 3,8 3,6 9,2 -2,5 85 0,0 3718 1,1 5,7 --- 7,3
26.02.2021 6,1 5,3 5,0 4,3 8,2 -0,4 89 0,2 665 0,9 7,3 --- 1,2
25.02.2021 6,2 6,5 9,9 8,6 19,0 3,1 75 0,0 3329 0,9 4,2 --- 6,9
24.02.2021 5,9 6,5 10,7 9,7 19,0 5,1 79 0,0 2964 1,0 4,8 --- 6,7
23.02.2021 5,1 5,5 9,3 8,8 18,7 1,5 81 0,0 2846 1,3 5,7 --- 6,5
22.02.2021 4,7 4,5 5,0 6,2 12,9 -2,1 88 0,0 2735 0,7 3,4 --- 7,1
21.02.2021 4,5 4,4 6,7 7,2 18,9 -1,4 82 0,0 3080 0,6 3,1 --- 6,4
20.02.2021 4,1 4,5 7,1 6,9 16,3 0,4 87 0,0 2785 0,8 5,2 --- 6,3
19.02.2021 3,5 3,9 7,0 6,4 12,1 0,6 85 0,0 2350 1,7 7,8 --- 6,3
18.02.2021 2,5 2,4 3,9 3,2 9,6 -1,3 92 0,0 1640 0,7 6,0 --- 4,8
17.02.2021 1,3 1,3 7,1 7,1 11,9 3,1 89 1,2 1290 2,2 7,5 --- 4,0
16.02.2021 0,8 -0,4 5,5 3,8 9,9 2,3 82 0,0 1939 2,1 5,4 --- 5,0
15.02.2021 0,9 -0,7 -1,1 -1,6 1,6 -6,0 75 1,1 759 1,5 6,5 --- 1,8
14.02.2021 1,0 -0,9 -2,5 -1,7 14,3 -8,2 68 0,0 2911 1,4 6,1 --- 6,1
13.02.2021 1,4 -0,5 -4,5 -2,0 12,3 -8,6 70 0,0 2956 2,3 9,5 --- 6,3
12.02.2021 1,8 -0,1 -4,7 -2,3 11,1 -8,5 77 0,0 2830 2,4 9,6 --- 6,1
11.02.2021 2,2 0,2 -5,6 -4,9 2,1 -10,9 86 0,8 2153 0,6 3,4 --- 5,3
10.02.2021 2,9 0,8 -7,6 -7,3 -1,9 -9,5 78 0,1 1314 2,0 7,6 --- 5,0
09.02.2021 3,8 1,9 -6,5 -6,1 -3,5 -8,3 78 0,0 979 1,7 5,8 --- 3,4
08.02.2021 4,9 2,9 -3,3 -3,2 0,6 -5,6 94 0,0 637 2,0 6,6 --- 0,5
07.02.2021 6,0 5,4 3,7 3,7 8,3 -1,5 99 4,0 336 1,4 7,8 --- ---
06.02.2021 6,3 6,1 6,2 6,4 9,4 4,7 98 9,8 314 1,7 6,6 --- ---
05.02.2021 6,2 5,8 5,6 5,8 8,1 3,3 99 3,2 542 0,5 2,0 --- 0,3
04.02.2021 6,7 6,8 8,0 15,9 27,2 4,4 83 0,1 1841 2,4 11,6 --- 4,8
03.02.2021 6,2 7,2 10,6 14,6 27,3 10,0 93 10,4 344 3,7 10,6 --- 0,1
02.02.2021 4,9 5,1 7,6 8,2 16,0 4,4 97 1,8 587 2,6 8,1 --- 0,8
01.02.2021 4,3 3,9 3,8 3,7 5,3 2,2 100 4,5 426 0,5 1,8 --- ---
31.01.2021 4,5 3,4 1,4 1,3 2,5 0,2 93 0,7 640 1,6 5,7 --- 0,8
30.01.2021 5,4 5,3 4,8 4,9 10,1 0,7 94 6,4 390 2,7 8,7 --- 0,4
29.01.2021 4,9 5,8 9,8 10,5 16,0 7,8 87 1,8 928 4,3 14,6 --- 2,6
28.01.2021 3,2 3,3 6,2 6,4 13,6 1,8 95 10,1 267 3,3 9,4 --- ---
27.01.2021 2,9 1,8 1,0 1,1 2,0 0,3 97 1,3 418 2,7 8,3 --- 0,5
26.01.2021 3,2 2,1 1,9 2,2 6,7 -0,7 86 0,0 501 3,0 10,4 --- 0,8
25.01.2021 3,4 2,4 1,0 1,1 2,8 -0,8 93 0,6 602 0,9 4,2 --- 0,7
24.01.2021 4,0 3,0 2,8 3,4 7,6 -0,2 86 2,2 532 4,5 12,6 --- 0,6
23.01.2021 4,4 3,7 3,4 3,6 5,3 1,4 95 0,6 482 1,6 6,1 --- 0,4
22.01.2021 4,8 5,1 6,3 6,5 11,3 2,8 90 10,4 393 3,2 13,7 --- ---
21.01.2021 3,6 4,0 8,7 9,1 12,8 7,0 73 0,9 488 5,2 14,3 --- 0,4
20.01.2021 2,6 2,1 5,6 6,2 9,9 1,5 70 0,0 735 3,4 8,4 --- 2,2
19.01.2021 2,4 1,7 2,7 2,9 5,9 1,7 88 2,9 173 3,7 10,9 --- ---
18.01.2021 1,8 1,0 2,4 2,7 6,6 1,0 93 0,0 725 2,6 7,9 --- 1,8
17.01.2021 1,6 0,3 -0,7 -0,7 1,6 -2,2 98 2,4 726 1,4 4,3 --- 2,7
16.01.2021 1,7 0,3 -0,6 -0,5 0,4 -2,0 83 0,0 349 1,1 5,3 --- ---
15.01.2021 1,8 0,3 -0,5 -0,3 2,5 -2,8 88 0,0 1062 0,7 4,5 --- 3,5
14.01.2021 1,7 0,3 1,4 1,7 3,5 -0,1 85 0,1 557 1,1 4,6 --- 0,9
13.01.2021 1,8 0,2 0,3 0,7 7,3 -4,0 93 0,1 1180 2,0 9,1 --- 3,3
12.01.2021 1,8 0,1 1,4 1,6 4,1 -0,4 93 4,6 189 3,5 9,8 --- ---
11.01.2021 2,2 0,1 -2,7 -2,5 2,8 -7,4 91 0,0 1537 1,5 6,9 --- 4,5
10.01.2021 2,9 0,8 -2,2 -1,7 3,0 -5,7 93 0,1 1587 0,4 2,4 --- 4,7
09.01.2021 3,7 2,3 0,2 0,4 4,0 -2,9 94 0,0 727 0,5 3,6 --- 1,7
08.01.2021 3,9 2,6 1,3 1,4 2,6 0,3 96 1,9 346 2,0 6,0 --- ---
07.01.2021 4,2 3,0 1,9 2,0 3,1 0,6 92 0,5 333 1,6 5,4 --- ---
06.01.2021 4,2 3,2 2,4 2,4 3,8 1,4 96 0,1 311 0,9 3,8 --- ---
05.01.2021 4,2 3,1 2,2 2,1 3,3 1,5 95 0,0 252 1,1 4,7 --- ---
04.01.2021 4,3 3,0 1,6 1,6 2,5 0,7 98 0,7 175 0,8 4,7 --- ---
03.01.2021 4,4 3,1 1,5 1,5 2,7 0,1 94 2,7 272 0,6 3,7 --- ---
02.01.2021 4,6 3,3 1,8 1,9 4,0 -1,0 90 0,0 574 0,7 4,3 --- 0,9
01.01.2021 4,8 3,8 2,7 2,8 3,8 0,6 97 0,0 322 0,7 2,5 --- ---

Mittelwerte (Temperaturen, Strahlung, rel. Feuchte, Wind), Summe (Regen) für 2021
5,9 5,5 5,1 5,4 79 147 2.675 1,8

Landesbetrieb Landwirtschaft Hessen 2009

      Werte bis 5 Uhr SommerzeitCSV-Datei: Allmendfeld21.csvDiagramm: Allmendfeld